Time;durP1;ratioP1;P1;durP2;ratioP2;P2;SDS_P1;SDS_P2;PMS_P1;PMS_P2;Temp;Humidity;BMP_temperature;BMP_pressure;BME280_temperature;BME280_humidity;BME280_pressure;Samples;Min_cycle;Max_cycle;Signal;HPM_P1;HPM_P2
2023/05/18 00:01:22;;;;;;;9.98;4.63;;;;;;;16.85;100.00;100682.84;2085795;28;20499;-73
2023/05/18 00:02:43;;;;;;;13.15;4.85;;;;;;;16.86;100.00;100685.50;2091027;28;20040;-73
2023/05/18 00:04:06;;;;;;;12.65;4.88;;;;;;;16.87;100.00;100683.72;2082486;28;20049;-73
2023/05/18 00:05:33;;;;;;;13.20;5.25;;;;;;;16.88;100.00;100680.13;2088098;28;20062;-73
2023/05/18 00:06:56;;;;;;;10.40;5.00;;;;;;;16.88;100.00;100670.34;2080504;28;20046;-73
2023/05/18 00:08:18;;;;;;;11.30;5.35;;;;;;;16.87;100.00;100673.06;2088942;28;20049;-73
2023/05/18 00:09:41;;;;;;;11.57;4.78;;;;;;;16.85;100.00;100669.53;2088111;28;20653;-73
2023/05/18 00:11:03;;;;;;;13.95;5.30;;;;;;;16.81;100.00;100667.78;2082939;28;20061;-72
2023/05/18 00:12:25;;;;;;;13.63;4.82;;;;;;;16.79;100.00;100673.16;2107693;28;20040;-72
2023/05/18 00:13:46;;;;;;;14.60;4.85;;;;;;;16.76;100.00;100675.84;2098951;28;20051;-73
2023/05/18 00:15:10;;;;;;;11.27;4.55;;;;;;;16.75;100.00;100676.72;2085163;28;20595;-72
2023/05/18 00:16:32;;;;;;;14.98;5.20;;;;;;;16.74;100.00;100677.63;2084199;28;20045;-73
2023/05/18 00:17:53;;;;;;;12.05;4.82;;;;;;;16.73;100.00;100667.88;2091908;28;20053;-73
2023/05/18 00:19:16;;;;;;;11.82;4.85;;;;;;;16.72;100.00;100677.66;2085882;28;20143;-72
2023/05/18 00:20:37;;;;;;;13.00;4.45;;;;;;;16.73;100.00;100682.09;2091983;28;20409;-72
2023/05/18 00:22:02;;;;;;;12.77;4.25;;;;;;;16.75;100.00;100684.72;2110345;28;20151;-72
2023/05/18 00:23:28;;;;;;;13.88;4.40;;;;;;;16.74;100.00;100688.28;2099521;28;20511;-72
2023/05/18 00:24:50;;;;;;;8.88;4.20;;;;;;;16.73;100.00;100682.09;2080826;28;20617;-72
2023/05/18 00:26:12;;;;;;;11.52;4.57;;;;;;;16.74;100.00;100678.50;2075140;28;20049;-73
2023/05/18 00:27:34;;;;;;;10.43;4.47;;;;;;;16.73;100.00;100682.09;2075471;28;20044;-73
2023/05/18 00:28:56;;;;;;;10.70;4.38;;;;;;;16.73;100.00;100679.44;2087689;28;20087;-72
2023/05/18 00:30:18;;;;;;;13.05;4.25;;;;;;;16.72;100.00;100679.44;2097054;28;20093;-72
2023/05/18 00:31:41;;;;;;;10.73;4.68;;;;;;;16.68;100.00;100680.34;2084451;28;20052;-73
2023/05/18 00:33:03;;;;;;;14.25;5.28;;;;;;;16.64;100.00;100681.31;2083534;28;20055;-73
2023/05/18 00:34:25;;;;;;;9.75;4.22;;;;;;;16.61;100.00;100682.22;2102612;28;20044;-73
2023/05/18 00:35:47;;;;;;;12.15;4.93;;;;;;;16.60;100.00;100685.78;2075095;28;20064;-73
2023/05/18 00:37:10;;;;;;;10.40;4.30;;;;;;;16.59;100.00;100681.31;2091744;28;20087;-72
2023/05/18 00:38:33;;;;;;;12.18;4.30;;;;;;;16.59;100.00;100683.09;2093927;28;20060;-73
2023/05/18 00:39:54;;;;;;;11.18;4.63;;;;;;;16.59;100.00;100683.09;2094019;28;20389;-73
2023/05/18 00:41:17;;;;;;;10.75;4.40;;;;;;;16.58;100.00;100679.56;2089123;28;20594;-73
2023/05/18 00:42:39;;;;;;;9.15;4.20;;;;;;;16.58;100.00;100678.66;2094282;28;20049;-74
2023/05/18 00:44:01;;;;;;;11.07;4.00;;;;;;;16.57;100.00;100674.22;2082793;28;20114;-73
2023/05/18 00:45:23;;;;;;;12.05;4.18;;;;;;;16.58;100.00;100674.22;2100407;28;20093;-73
2023/05/18 00:46:45;;;;;;;11.15;4.30;;;;;;;16.58;100.00;100676.00;2087258;28;20056;-73
2023/05/18 00:48:07;;;;;;;10.38;3.88;;;;;;;16.57;100.00;100671.56;2075778;28;20081;-73
2023/05/18 00:49:30;;;;;;;9.95;4.18;;;;;;;16.55;100.00;100676.03;2086418;28;20106;-73
2023/05/18 00:50:51;;;;;;;9.55;4.18;;;;;;;16.52;100.00;100670.75;2100868;28;20500;-72
2023/05/18 00:52:16;;;;;;;12.05;4.75;;;;;;;16.50;100.00;100669.88;2083289;28;20077;-73
2023/05/18 00:53:37;;;;;;;9.35;4.65;;;;;;;16.48;100.00;100666.31;2103263;28;20419;-73
2023/05/18 00:55:00;;;;;;;11.30;4.18;;;;;;;16.47;100.00;100667.25;2095134;28;20040;-74
2023/05/18 00:56:23;;;;;;;10.68;4.50;;;;;;;16.43;100.00;100670.81;2097000;28;20044;-73
2023/05/18 00:57:46;;;;;;;12.93;4.57;;;;;;;16.40;100.00;100670.88;2088784;28;20053;-73
2023/05/18 00:59:10;;;;;;;14.45;4.95;;;;;;;16.38;100.00;100662.88;2084460;28;20114;-73
2023/05/18 01:00:36;;;;;;;11.73;4.50;;;;;;;16.35;100.00;100663.78;2083938;28;20063;-72
2023/05/18 01:01:57;;;;;;;9.15;3.90;;;;;;;16.32;100.00;100658.50;2091884;28;20081;-73
2023/05/18 01:03:20;;;;;;;;;;;;;;;16.24;100.00;100665.66;2082862;28;20099;-72
2023/05/18 01:04:42;;;;;;;16.30;4.55;;;;;;;16.16;100.00;100664.84;2092870;28;19924;-73
2023/05/18 01:06:04;;;;;;;16.60;4.75;;;;;;;16.13;100.00;100662.22;2109230;28;20042;-73
2023/05/18 01:07:27;;;;;;;14.30;4.40;;;;;;;16.15;100.00;100664.84;2091153;28;20057;-73
2023/05/18 01:08:50;;;;;;;11.05;4.45;;;;;;;16.18;100.00;100667.50;2104461;28;20052;-73
2023/05/18 01:10:12;;;;;;;10.27;4.45;;;;;;;16.24;100.00;100668.34;2085637;28;20049;-73
2023/05/18 01:11:51;;;;;;;9.40;4.22;;;;;;;16.28;100.00;100663.84;2093827;28;20048;-73
2023/05/18 01:13:20;;;;;;;14.90;4.68;;;;;;;16.32;100.00;100670.94;2080357;28;20559;-73
2023/05/18 01:14:51;;;;;;;14.15;4.63;;;;;;;16.33;100.00;100668.25;2084398;28;20051;-73
2023/05/18 01:16:20;;;;;;;10.52;4.25;;;;;;;16.33;100.00;100675.38;2085266;28;20529;-74
2023/05/18 01:17:59;;;;;;;10.65;4.45;;;;;;;16.31;100.00;100678.03;2094426;28;20053;-73
2023/05/18 01:19:43;;;;;;;10.00;4.35;;;;;;;16.30;100.00;100672.72;2073886;28;20399;-73
2023/05/18 01:21:12;;;;;;;12.63;4.68;;;;;;;16.26;100.00;100673.66;2096983;28;20049;-73
2023/05/18 01:22:57;;;;;;;12.70;4.10;;;;;;;16.22;100.00;100677.22;2087251;28;20518;-73
2023/05/18 01:24:32;;;;;;;10.57;4.05;;;;;;;16.14;100.00;100677.31;2088340;28;20489;-72
2023/05/18 01:26:11;;;;;;;11.13;4.20;;;;;;;16.12;100.00;100683.53;2086385;28;20056;-73
2023/05/18 01:27:36;;;;;;;13.00;4.22;;;;;;;16.10;100.00;100682.66;2095801;28;20036;-72
2023/05/18 01:29:01;;;;;;;12.85;4.45;;;;;;;16.09;100.00;100680.88;2079961;28;20102;-72
2023/05/18 01:30:23;;;;;;;12.27;4.15;;;;;;;16.09;100.00;100688.88;2086756;28;20059;-73
2023/05/18 01:31:46;;;;;;;10.45;4.57;;;;;;;16.07;100.00;100685.38;2088174;28;20511;-73
2023/05/18 01:33:08;;;;;;;9.20;4.22;;;;;;;16.01;100.00;100683.63;2088504;28;20064;-73
2023/05/18 01:34:30;;;;;;;10.90;4.20;;;;;;;15.99;100.00;100684.53;2081443;28;20045;-73
2023/05/18 01:35:53;;;;;;;11.32;4.60;;;;;;;15.98;100.00;100675.66;2083203;28;20052;-72
2023/05/18 01:37:16;;;;;;;9.63;4.18;;;;;;;15.98;100.00;100682.75;2091050;28;20066;-72
2023/05/18 01:38:38;;;;;;;10.80;3.80;;;;;;;15.98;100.00;100678.31;2077286;28;20179;-73
2023/05/18 01:40:04;;;;;;;12.23;4.75;;;;;;;15.97;100.00;100683.66;2089572;28;20064;-72
2023/05/18 01:41:30;;;;;;;11.63;4.60;;;;;;;15.92;100.00;100678.38;2108163;28;20074;-72
2023/05/18 01:42:57;;;;;;;8.55;4.35;;;;;;;15.89;100.00;100684.59;2090596;28;20049;-73
2023/05/18 01:44:25;;;;;;;8.70;4.38;;;;;;;15.86;100.00;100679.31;2077816;28;20437;-72
2023/05/18 01:45:54;;;;;;;11.68;4.50;;;;;;;15.84;100.00;100680.19;2080201;28;20045;-72
2023/05/18 01:47:17;;;;;;;12.75;4.70;;;;;;;15.83;100.00;100681.97;2084161;28;20049;-73
2023/05/18 01:48:47;;;;;;;7.13;4.20;;;;;;;15.85;100.00;100688.19;2087438;28;20144;-72
2023/05/18 01:50:15;;;;;;;10.63;3.95;;;;;;;15.86;100.00;100689.97;2093877;28;20091;-72
2023/05/18 01:51:43;;;;;;;9.70;4.65;;;;;;;15.87;100.00;100691.72;2093725;28;20052;-72
2023/05/18 01:53:12;;;;;;;12.88;4.13;;;;;;;15.87;100.00;100686.41;2094097;28;20059;-73
2023/05/18 01:54:37;;;;;;;10.20;4.30;;;;;;;15.87;100.00;100688.19;2080877;28;20057;-72
2023/05/18 01:56:01;;;;;;;10.88;4.38;;;;;;;15.83;100.00;100674.00;2083739;28;20131;-72
2023/05/18 01:57:30;;;;;;;10.65;4.90;;;;;;;15.81;100.00;100681.13;2083298;28;20102;-73
2023/05/18 01:58:52;;;;;;;12.80;5.00;;;;;;;15.79;100.00;100682.03;2084277;28;20048;-73
2023/05/18 02:00:17;;;;;;;10.77;4.53;;;;;;;15.78;100.00;100672.25;2089796;28;20036;-72
2023/05/18 02:01:38;;;;;;;11.60;4.55;;;;;;;15.75;100.00;100673.16;2093282;28;20049;-72
2023/05/18 02:03:01;;;;;;;10.73;4.75;;;;;;;15.73;100.00;100676.75;2085758;28;20075;-72
2023/05/18 02:04:23;;;;;;;10.52;4.15;;;;;;;15.69;100.00;100667.88;2082791;28;20056;-72
2023/05/18 02:05:45;;;;;;;8.88;4.18;;;;;;;15.66;100.00;100670.56;2081574;28;20056;-73
2023/05/18 02:07:08;;;;;;;9.55;4.22;;;;;;;15.63;100.00;100664.38;2082210;28;20747;-73
2023/05/18 02:08:29;;;;;;;11.70;5.10;;;;;;;15.59;100.00;100668.84;2099575;28;20415;-73
2023/05/18 02:09:52;;;;;;;11.65;4.47;;;;;;;15.53;100.00;100672.44;2081940;28;20056;-72
2023/05/18 02:11:13;;;;;;;13.05;4.68;;;;;;;15.50;100.00;100668.84;2090997;28;20073;-73
2023/05/18 02:12:37;;;;;;;10.50;4.20;;;;;;;15.53;100.00;100677.75;2085566;28;20077;-72
2023/05/18 02:13:59;;;;;;;15.45;4.95;;;;;;;15.58;100.00;100667.06;2083260;28;20653;-72
2023/05/18 02:15:22;;;;;;;;;;;;;;;15.58;100.00;100668.84;2086094;28;20060;-73
2023/05/18 02:16:45;;;;;;;9.60;4.35;;;;;;;15.58;100.00;100663.53;2082791;28;20162;-73
2023/05/18 02:18:07;;;;;;;11.35;4.20;;;;;;;15.61;100.00;100669.72;2082969;28;20076;-73
2023/05/18 02:19:31;;;;;;;12.98;4.55;;;;;;;15.63;100.00;100661.72;2088950;28;20065;-73
2023/05/18 02:20:57;;;;;;;9.95;4.55;;;;;;;15.64;100.00;100655.50;2074859;28;20045;-73
2023/05/18 02:22:20;;;;;;;13.93;5.18;;;;;;;15.64;100.00;100664.38;2082508;28;20080;-73
2023/05/18 02:23:41;;;;;;;11.68;4.30;;;;;;;15.65;100.00;100666.16;2091336;28;20439;-73
2023/05/18 02:25:04;;;;;;;15.40;4.70;;;;;;;15.65;100.00;100655.50;2079696;28;20540;-73
2023/05/18 02:26:26;;;;;;;10.98;4.88;;;;;;;15.65;100.00;100659.94;2091383;28;20051;-73
2023/05/18 02:27:51;;;;;;;8.32;4.70;;;;;;;15.64;100.00;100655.50;2093966;28;20396;-72
2023/05/18 02:29:15;;;;;;;10.95;4.78;;;;;;;15.62;100.00;100663.50;2094072;28;20139;-73
2023/05/18 02:30:37;;;;;;;11.27;4.80;;;;;;;15.62;100.00;100666.16;2085708;28;20056;-72
2023/05/18 02:31:58;;;;;;;11.98;5.18;;;;;;;15.60;100.00;100681.25;2091178;28;20044;-72
2023/05/18 02:33:24;;;;;;;12.38;4.82;;;;;;;15.57;100.00;100689.25;2085420;28;20512;-73
2023/05/18 02:34:49;;;;;;;11.27;4.50;;;;;;;15.49;100.00;100680.41;2084899;28;20037;-73
2023/05/18 02:36:12;;;;;;;12.70;4.93;;;;;;;15.41;100.00;100676.91;2108494;28;20055;-73
2023/05/18 02:37:38;;;;;;;14.27;4.80;;;;;;;15.40;100.00;100670.69;2090456;28;20408;-73
2023/05/18 02:39:00;;;;;;;16.48;4.80;;;;;;;15.38;100.00;100683.13;2101498;28;20248;-73
2023/05/18 02:40:22;;;;;;;14.70;4.45;;;;;;;15.33;100.00;100681.38;2090898;28;20125;-73
2023/05/18 02:41:45;;;;;;;12.80;4.45;;;;;;;15.30;100.00;100673.41;2091893;28;20060;-72
2023/05/18 02:43:08;;;;;;;10.70;5.22;;;;;;;15.32;100.00;100675.19;2093189;28;20044;-72
2023/05/18 02:44:30;;;;;;;14.88;5.28;;;;;;;15.33;100.00;100668.09;2080956;28;20099;-72
2023/05/18 02:45:53;;;;;;;12.68;4.93;;;;;;;15.32;100.00;100666.31;2084281;28;20049;-73
2023/05/18 02:47:16;;;;;;;9.15;4.25;;;;;;;15.31;100.00;100673.41;2079732;28;20049;-73
2023/05/18 02:48:38;;;;;;;15.27;5.07;;;;;;;15.34;100.00;100659.22;2079215;28;20075;-73
2023/05/18 02:50:00;;;;;;;11.23;4.82;;;;;;;15.37;100.00;100654.75;2092216;28;20041;-73
2023/05/18 02:51:23;;;;;;;15.50;5.18;;;;;;;15.40;100.00;100661.84;2090006;28;20128;-72
2023/05/18 02:52:44;;;;;;;13.82;4.75;;;;;;;15.44;100.00;100663.56;2093265;28;20048;-74
2023/05/18 02:54:07;;;;;;;12.32;5.03;;;;;;;15.45;100.00;100660.91;2080601;28;20045;-73
2023/05/18 02:55:31;;;;;;;13.80;5.30;;;;;;;15.47;100.00;100661.81;2090284;28;20145;-73
2023/05/18 02:57:13;;;;;;;11.35;4.47;;;;;;;15.49;100.00;100667.13;2092629;28;20078;-72
2023/05/18 02:58:56;;;;;;;14.07;5.30;;;;;;;15.52;100.00;100678.66;2076062;28;20129;-72
2023/05/18 03:00:23;;;;;;;11.88;4.20;;;;;;;15.58;100.00;100677.72;2098092;28;20143;-73
2023/05/18 03:01:45;;;;;;;10.60;4.25;;;;;;;15.66;100.00;100675.91;2089797;28;20045;-72
2023/05/18 03:03:09;;;;;;;15.77;4.65;;;;;;;15.73;100.00;100674.97;2087338;28;20186;-73
2023/05/18 03:04:32;;;;;;;12.70;5.18;;;;;;;15.77;100.00;100676.69;2081836;28;20049;-73
2023/05/18 03:05:54;;;;;;;16.10;5.07;;;;;;;15.78;100.00;100673.16;2078719;28;20053;-73
2023/05/18 03:07:16;;;;;;;16.88;5.05;;;;;;;15.77;100.00;100676.69;2098656;28;20113;-72
2023/05/18 03:08:39;;;;;;;14.70;4.82;;;;;;;15.76;100.00;100671.38;2087447;28;20069;-73
2023/05/18 03:10:06;;;;;;;11.38;4.72;;;;;;;15.71;100.00;100671.41;2076850;28;20077;-73
2023/05/18 03:11:27;;;;;;;13.50;4.53;;;;;;;15.68;100.00;100674.13;2093227;28;20044;-72
2023/05/18 03:12:50;;;;;;;12.23;4.70;;;;;;;15.66;100.00;100675.00;2083848;28;20044;-73
2023/05/18 03:14:14;;;;;;;9.48;4.53;;;;;;;15.64;100.00;100676.78;2092723;28;20048;-73
2023/05/18 03:15:38;;;;;;;14.77;5.47;;;;;;;15.58;100.00;100675.06;2086459;28;20128;-72
2023/05/18 03:17:04;;;;;;;13.40;4.60;;;;;;;15.55;100.00;100683.06;2093785;28;20057;-72
2023/05/18 03:18:26;;;;;;;10.80;3.97;;;;;;;15.59;100.00;100687.47;2086658;28;20564;-73
2023/05/18 03:19:50;;;;;;;12.35;4.40;;;;;;;15.66;100.00;100683.00;2085497;28;20049;-72
2023/05/18 03:21:13;;;;;;;12.68;4.10;;;;;;;15.72;100.00;100691.81;2078964;28;20041;-73
2023/05/18 03:22:36;;;;;;;13.50;4.53;;;;;;;15.80;100.00;100686.47;2104314;28;20047;-72
2023/05/18 03:23:57;;;;;;;13.07;4.65;;;;;;;15.85;100.00;100689.97;2092055;28;20049;-72
2023/05/18 03:25:19;;;;;;;11.73;4.28;;;;;;;15.90;100.00;100686.38;2099408;28;20054;-72
2023/05/18 03:26:43;;;;;;;11.40;3.83;;;;;;;15.95;100.00;100692.53;2088912;28;20064;-73
2023/05/18 03:28:05;;;;;;;13.63;4.20;;;;;;;16.01;100.00;100693.41;2085861;28;20075;-73
2023/05/18 03:29:29;;;;;;;16.58;3.97;;;;;;;16.05;100.00;100690.69;2068111;28;20060;-73
2023/05/18 03:30:51;;;;;;;10.45;3.72;;;;;;;16.10;100.00;100698.63;2099139;28;20515;-72
2023/05/18 03:32:14;;;;;;;10.90;3.97;;;;;;;16.14;100.00;100693.31;2092005;28;20060;-73
2023/05/18 03:33:35;;;;;;;13.48;4.03;;;;;;;16.20;100.00;100697.69;2079138;28;20080;-73
2023/05/18 03:34:59;;;;;;;10.98;3.75;;;;;;;16.25;100.00;100704.75;2088557;28;20063;-72
2023/05/18 03:36:24;;;;;;;16.45;3.90;;;;;;;16.33;100.00;100704.69;2086257;28;20505;-73
2023/05/18 03:37:48;;;;;;;13.15;4.18;;;;;;;16.40;100.00;100703.72;2093208;28;20588;-72
2023/05/18 03:39:09;;;;;;;14.52;4.25;;;;;;;16.47;100.00;100707.22;2086818;28;20049;-73
2023/05/18 03:40:31;;;;;;;11.90;4.00;;;;;;;16.53;100.00;100708.03;2083041;28;20520;-73
2023/05/18 03:41:53;;;;;;;11.63;3.80;;;;;;;16.59;100.00;100704.44;2085999;28;20048;-73
2023/05/18 03:43:15;;;;;;;12.45;4.53;;;;;;;16.64;100.00;100710.63;2097154;28;20060;-72
2023/05/18 03:44:39;;;;;;;12.13;4.18;;;;;;;16.69;100.00;100712.34;2087324;28;20132;-73
2023/05/18 03:46:02;;;;;;;16.75;4.82;;;;;;;16.75;100.00;100711.38;2094444;28;20052;-73
2023/05/18 03:47:23;;;;;;;11.90;4.38;;;;;;;16.81;100.00;100716.66;2085131;28;20029;-73
2023/05/18 03:48:46;;;;;;;16.35;4.30;;;;;;;16.88;100.00;100718.34;2090194;28;20056;-73
2023/05/18 03:50:12;;;;;;;15.13;4.43;;;;;;;16.96;100.00;100716.50;2081603;28;20049;-73
2023/05/18 03:51:33;;;;;;;12.93;3.50;;;;;;;17.06;100.00;100719.97;2092670;28;20048;-73
2023/05/18 03:52:56;;;;;;;;;;;;;;;17.13;100.00;100725.16;2087408;28;20048;-73
2023/05/18 03:54:17;;;;;;;14.45;4.15;;;;;;;17.19;100.00;100718.91;2083584;28;19921;-72
2023/05/18 03:55:40;;;;;;;13.98;5.18;;;;;;;17.27;100.00;100729.47;2081979;28;20045;-73
2023/05/18 03:57:02;;;;;;;12.10;4.15;;;;;;;17.33;100.00;100722.25;2078013;28;20061;-73
2023/05/18 03:58:26;;;;;;;12.65;4.50;;;;;;;17.37;100.00;100724.00;2083444;28;20173;-73
2023/05/18 03:59:49;;;;;;;11.25;3.88;;;;;;;17.45;100.00;100723.91;2094732;28;20091;-73
2023/05/18 04:01:12;;;;;;;9.88;3.75;;;;;;;17.52;100.00;100728.28;2088350;28;20043;-73
2023/05/18 04:02:33;;;;;;;10.32;3.50;;;;;;;17.60;100.00;100725.47;2084140;28;20049;-74
2023/05/18 04:03:56;;;;;;;12.07;3.60;;;;;;;17.67;100.00;100732.53;2083479;28;20115;-73
2023/05/18 04:05:19;;;;;;;14.73;4.57;;;;;;;17.74;100.00;100728.88;2085710;28;20060;-73
2023/05/18 04:06:42;;;;;;;;;;;;;;;17.78;100.00;100734.16;2081775;28;20052;-73
2023/05/18 04:08:06;;;;;;;13.98;3.78;;;;;;;17.87;100.00;100742.03;2098279;28;19985;-73
2023/05/18 04:09:28;;;;;;;14.80;4.15;;;;;;;18.00;100.00;100748.06;2082164;28;20053;-72
2023/05/18 04:10:50;;;;;;;10.45;3.50;;;;;;;18.07;100.00;100736.38;2083662;28;20055;-73
2023/05/18 04:12:14;;;;;;;11.60;3.67;;;;;;;18.18;100.00;100739.75;2090149;28;20040;-73
2023/05/18 04:13:37;;;;;;;14.35;3.88;;;;;;;18.32;100.00;100735.06;2097288;28;20151;-73
2023/05/18 04:15:02;;;;;;;15.88;4.30;;;;;;;18.44;100.00;100733.13;2078386;28;20049;-73
2023/05/18 04:16:24;;;;;;;18.65;4.30;;;;;;;18.55;100.00;100734.72;2101009;28;20120;-73
2023/05/18 04:17:48;;;;;;;17.55;4.93;;;;;;;18.66;100.00;100740.75;2091570;28;20057;-73
2023/05/18 04:19:09;;;;;;;15.52;4.55;;;;;;;18.76;100.00;100728.13;2086689;28;20040;-73
2023/05/18 04:20:31;;;;;;;12.77;4.07;;;;;;;18.87;100.00;100734.16;2103422;28;20400;-73
2023/05/18 04:21:53;;;;;;;17.83;4.47;;;;;;;18.98;100.00;100731.25;2086201;28;20144;-73
2023/05/18 04:23:15;;;;;;;13.32;4.13;;;;;;;19.08;100.00;100724.84;2086383;28;20048;-74
2023/05/18 04:24:37;;;;;;;19.92;4.35;;;;;;;19.20;100.00;100726.38;2088370;28;20049;-73
2023/05/18 04:26:00;;;;;;;24.48;4.43;;;;;;;19.29;100.00;100726.19;2077841;28;20551;-73
2023/05/18 04:27:21;;;;;;;15.73;3.72;;;;;;;19.37;100.00;100718.84;2094806;28;20496;-73
2023/05/18 04:28:46;;;;;;;12.82;3.70;;;;;;;19.44;100.00;100728.53;2088812;28;20456;-73
2023/05/18 04:30:10;;;;;;;14.88;3.42;;;;;;;19.55;100.00;100731.91;2085747;28;20044;-73
2023/05/18 04:31:35;;;;;;;13.32;3.55;;;;;;;19.63;100.00;100729.94;2085579;28;20052;-73
2023/05/18 04:32:58;;;;;;;15.15;3.75;;;;;;;19.72;100.00;100732.41;2086106;28;20113;-73
2023/05/18 04:34:23;;;;;;;18.65;4.43;;;;;;;19.79;100.00;100727.78;2086285;28;20167;-73
2023/05/18 04:35:45;;;;;;;17.42;4.45;;;;;;;19.85;100.00;100736.56;2078297;28;20053;-74
2023/05/18 04:37:09;;;;;;;10.18;3.45;;;;;;;19.95;100.00;100744.41;2075594;28;20065;-73
2023/05/18 04:38:33;;;;;;;13.60;3.53;;;;;;;20.02;100.00;100738.84;2090330;28;20489;-73
2023/05/18 04:39:57;;;;;;;13.38;3.22;;;;;;;20.09;100.00;100736.91;2082365;28;20396;-73
2023/05/18 04:41:20;;;;;;;10.23;2.80;;;;;;;20.18;100.00;100742.06;2086543;28;20139;-73
2023/05/18 04:42:44;;;;;;;13.48;3.67;;;;;;;20.27;100.00;100745.41;2085558;28;20040;-73
2023/05/18 04:44:09;;;;;;;14.85;4.07;;;;;;;20.38;100.00;100749.66;2084746;28;20143;-74
2023/05/18 04:45:32;;;;;;;15.80;3.40;;;;;;;20.49;100.00;100748.44;2083631;28;20037;-73
2023/05/18 04:46:56;;;;;;;9.70;3.20;;;;;;;20.58;100.00;100753.59;2083779;28;20492;-73
2023/05/18 04:48:18;;;;;;;13.82;3.50;;;;;;;20.68;100.00;100749.75;2078532;28;20042;-73
2023/05/18 04:49:42;;;;;;;11.10;3.20;;;;;;;20.75;100.00;100749.56;2095969;28;21007;-73
2023/05/18 04:51:04;;;;;;;11.55;2.97;;;;;;;20.82;100.00;100745.81;2095709;28;20040;-73
2023/05/18 04:52:29;;;;;;;15.30;3.22;;;;;;;20.91;100.00;100753.63;2081409;28;20041;-72
2023/05/18 04:53:51;;;;;;;19.75;3.20;;;;;;;20.98;100.00;100745.38;2087578;28;20051;-73
2023/05/18 04:55:15;;;;;;;14.05;3.35;;;;;;;21.11;100.00;100745.03;2102402;28;20538;-72
2023/05/18 04:56:37;;;;;;;13.30;3.30;;;;;;;21.22;100.00;100753.69;2086177;28;20048;-73
2023/05/18 04:58:00;;;;;;;17.95;3.55;;;;;;;21.32;100.00;100748.03;2077613;28;20045;-73
2023/05/18 04:59:25;;;;;;;10.18;3.40;;;;;;;21.39;98.36;100749.63;2074394;28;20072;-73
2023/05/18 05:00:49;;;;;;;15.30;3.80;;;;;;;21.44;98.22;100746.78;2086914;28;20534;-73
2023/05/18 05:02:11;;;;;;;9.40;2.78;;;;;;;21.54;98.08;100752.75;2079702;28;20041;-72
2023/05/18 05:03:33;;;;;;;8.20;3.03;;;;;;;21.62;98.70;100754.31;2082852;28;20049;-73
2023/05/18 05:04:56;;;;;;;10.43;3.13;;;;;;;21.75;96.58;100752.13;2086009;28;20045;-73
2023/05/18 05:06:17;;;;;;;10.63;3.40;;;;;;;21.85;94.03;100759.88;2084395;28;20131;-72
2023/05/18 05:07:39;;;;;;;9.25;3.47;;;;;;;21.98;94.56;100764.91;2081121;28;20053;-73
2023/05/18 05:09:03;;;;;;;10.43;3.10;;;;;;;22.04;91.26;100773.66;2092387;28;20048;-73
2023/05/18 05:10:26;;;;;;;10.25;2.53;;;;;;;22.03;87.87;100763.81;2093318;28;20638;-72
2023/05/18 05:11:48;;;;;;;9.65;2.63;;;;;;;22.07;88.56;100760.09;2077935;28;20489;-73
2023/05/18 05:13:10;;;;;;;11.15;3.33;;;;;;;22.12;86.72;100763.50;2091710;28;20405;-74
2023/05/18 05:14:31;;;;;;;8.68;2.80;;;;;;;22.12;85.41;100758.13;2089010;28;20067;-74
2023/05/18 05:15:55;;;;;;;11.13;3.50;;;;;;;22.14;85.55;100753.59;2081429;28;20128;-73
2023/05/18 05:17:18;;;;;;;9.35;3.22;;;;;;;22.23;87.46;100766.75;2105865;28;20047;-72
2023/05/18 05:18:40;;;;;;;12.00;2.95;;;;;;;22.35;87.58;100748.44;2080242;28;20083;-72
2023/05/18 05:20:03;;;;;;;12.40;3.00;;;;;;;22.40;84.24;100741.97;2098684;28;20642;-73
2023/05/18 05:21:27;;;;;;;11.50;3.00;;;;;;;22.45;82.72;100747.22;2087266;28;20033;-73
2023/05/18 05:22:50;;;;;;;11.85;3.22;;;;;;;22.52;83.38;100744.25;2079330;28;20058;-72
2023/05/18 05:24:17;;;;;;;10.43;3.00;;;;;;;22.62;82.25;100736.75;2084720;28;20516;-73
2023/05/18 05:25:41;;;;;;;10.18;2.83;;;;;;;22.72;80.95;100735.50;2083924;28;20041;-73
2023/05/18 05:27:03;;;;;;;13.05;3.47;;;;;;;22.82;79.64;100734.28;2083010;28;20052;-73
2023/05/18 05:28:26;;;;;;;15.98;3.58;;;;;;;22.90;75.39;100734.03;2085534;28;20148;-73
2023/05/18 05:29:50;;;;;;;16.85;3.58;;;;;;;22.96;74.73;100729.31;2080297;28;20045;-73
2023/05/18 05:31:13;;;;;;;13.68;2.80;;;;;;;23.02;71.42;100731.78;2091184;28;20536;-73
2023/05/18 05:32:35;;;;;;;11.45;2.75;;;;;;;23.03;72.31;100730.84;2086172;28;20045;-73
2023/05/18 05:33:58;;;;;;;;;;;;;;;23.00;72.00;100730.94;2078374;28;20049;-73
2023/05/18 05:35:19;;;;;;;12.63;2.80;;;;;;;23.09;72.41;100726.16;2089497;28;19921;-73
2023/05/18 05:36:42;;;;;;;10.88;2.65;;;;;;;23.22;73.60;100722.09;2096501;28;20052;-73
2023/05/18 05:38:04;;;;;;;14.60;3.10;;;;;;;23.38;72.72;100726.81;2080383;28;20053;-73
2023/05/18 05:39:27;;;;;;;10.18;3.55;;;;;;;23.50;70.75;100728.19;2077602;28;20052;-73
2023/05/18 05:40:50;;;;;;;9.85;4.03;;;;;;;23.59;67.61;100726.97;2080240;28;20555;-73
2023/05/18 05:42:12;;;;;;;11.90;3.72;;;;;;;23.67;66.98;100725.75;2077405;28;20045;-73
2023/05/18 05:43:36;;;;;;;14.35;3.50;;;;;;;23.84;67.75;100734.06;2075122;28;20059;-74
2023/05/18 05:44:59;;;;;;;10.32;2.80;;;;;;;24.02;65.81;100716.28;2082748;28;20053;-73
2023/05/18 05:46:25;;;;;;;10.52;3.28;;;;;;;24.15;64.94;100727.44;2084612;28;20072;-74
2023/05/18 05:47:48;;;;;;;8.65;2.47;;;;;;;24.29;62.64;100718.78;2086976;28;20425;-73
2023/05/18 05:49:12;;;;;;;11.00;3.20;;;;;;;24.31;60.91;100725.88;2083449;28;20037;-74
2023/05/18 05:50:35;;;;;;;13.52;3.20;;;;;;;24.41;60.38;100724.56;2083250;28;20572;-72
2023/05/18 05:51:57;;;;;;;10.05;2.72;;;;;;;24.52;60.95;100725.00;2085953;28;20051;-73
2023/05/18 05:53:22;;;;;;;10.85;2.90;;;;;;;24.70;58.95;100717.91;2084549;28;20052;-73
2023/05/18 05:54:44;;;;;;;9.48;2.58;;;;;;;24.75;57.03;100720.41;2090018;28;20068;-73
2023/05/18 05:56:08;;;;;;;12.73;2.90;;;;;;;24.93;56.90;100728.63;2078974;28;20052;-73
2023/05/18 05:57:33;;;;;;;10.98;2.90;;;;;;;25.10;54.12;100732.41;2091789;28;20083;-74
2023/05/18 05:58:55;;;;;;;10.77;3.25;;;;;;;25.20;54.22;100748.16;2088447;28;20045;-74
2023/05/18 06:00:17;;;;;;;11.35;2.83;;;;;;;25.34;53.05;100742.97;2093624;28;20054;-74
2023/05/18 06:01:50;;;;;;;11.30;2.83;;;;;;;25.44;51.45;100756.97;2080193;28;20076;-73
2023/05/18 06:03:15;;;;;;;9.63;2.67;;;;;;;25.55;52.38;100759.16;2084034;28;20135;-73
2023/05/18 06:04:40;;;;;;;12.10;3.00;;;;;;;25.74;52.24;100763.66;2087519;28;20060;-73
2023/05/18 06:06:02;;;;;;;12.40;3.17;;;;;;;25.87;51.19;100763.97;2094121;28;20143;-74
2023/05/18 06:07:25;;;;;;;9.60;2.88;;;;;;;26.00;51.51;100756.13;2080179;28;20068;-73
2023/05/18 06:08:47;;;;;;;11.02;3.00;;;;;;;26.15;50.51;100756.28;2074799;28;20053;-73
2023/05/18 06:10:12;;;;;;;10.18;2.50;;;;;;;26.23;48.41;100755.03;2092126;28;20076;-74
2023/05/18 06:11:33;;;;;;;11.30;3.35;;;;;;;26.20;48.27;100751.50;2080278;28;20045;-73
2023/05/18 06:12:56;;;;;;;9.35;2.83;;;;;;;26.32;48.88;100760.03;2069148;28;20062;-73
2023/05/18 06:14:25;;;;;;;10.68;2.83;;;;;;;26.45;48.37;100758.47;2078261;28;20120;-73
2023/05/18 06:15:47;;;;;;;7.75;2.30;;;;;;;26.64;48.33;100756.59;2083700;28;20064;-74
2023/05/18 06:17:11;;;;;;;9.20;2.72;;;;;;;26.82;47.96;100758.34;2092989;28;20452;-73
2023/05/18 06:18:35;;;;;;;10.45;2.60;;;;;;;26.92;46.70;100762.34;2080105;28;20080;-74
2023/05/18 06:20:00;;;;;;;9.93;2.60;;;;;;;26.96;46.44;100761.25;2077584;28;20049;-73
2023/05/18 06:21:23;;;;;;;9.57;2.47;;;;;;;26.96;45.58;100755.84;2091420;28;20083;-73
2023/05/18 06:22:45;;;;;;;10.75;2.70;;;;;;;26.95;45.80;100753.19;2081294;28;20049;-74
2023/05/18 06:24:31;;;;;;;9.18;2.65;;;;;;;26.95;44.84;100769.44;2093990;28;20072;-73